<?xml version="1.0" encoding="UTF-8" standalone="no" ?>
<gpx xmlns="http://www.topografix.com/GPX/1/1" xmlns:xsi="http://www.w3.org/2001/XMLSchema-instance" xsi:schemaLocation="http://www.topografix.com/GPX/1/1 http://www.topografix.com/GPX/1/1/gpx.xsd" version="1.1" creator="VisuGPX - https://www.visugpx.com">
  <metadata>
    <name>Edirne-Zagreb</name>
  </metadata>
  <trk>
    <name><![CDATA[Tour d'Europe: étape 646]]></name>
    <extensions>
      <line xmlns="http://www.topografix.com/GPX/gpx_style/0/2">
        <color>880088</color>
        <width>4</width>
      </line>
    </extensions>
    <trkseg>
      <trkpt lat="42.60275" lon="23.02981">
        <ele>765.480992</ele>
        <time>2022-04-05T07:02:01.309Z</time>
      </trkpt>
      <trkpt lat="42.602" lon="23.02946">
        <ele>763.704977</ele>
        <time>2022-04-05T07:02:41.201Z</time>
      </trkpt>
      <trkpt lat="42.60053" lon="23.0284">
        <ele>742.623255</ele>
        <time>2022-04-05T07:05:02.206Z</time>
      </trkpt>
      <trkpt lat="42.59883" lon="23.02671">
        <ele>746.048776</ele>
        <time>2022-04-05T07:06:03.195Z</time>
      </trkpt>
      <trkpt lat="42.59709" lon="23.02513">
        <ele>740.75361</ele>
        <time>2022-04-05T07:07:12.197Z</time>
      </trkpt>
      <trkpt lat="42.59706" lon="23.02292">
        <ele>741.778197</ele>
        <time>2022-04-05T07:08:14.223Z</time>
      </trkpt>
      <trkpt lat="42.59706" lon="23.01999">
        <ele>740.576248</ele>
        <time>2022-04-05T07:09:21.192Z</time>
      </trkpt>
      <trkpt lat="42.59662" lon="23.01751">
        <ele>752.444392</ele>
        <time>2022-04-05T07:11:47.219Z</time>
      </trkpt>
      <trkpt lat="42.59574" lon="23.01495">
        <ele>754.433664</ele>
        <time>2022-04-05T07:28:07.233Z</time>
      </trkpt>
      <trkpt lat="42.59476" lon="23.01238">
        <ele>740.466612</ele>
        <time>2022-04-05T07:29:17.219Z</time>
      </trkpt>
      <trkpt lat="42.59353" lon="23.00936">
        <ele>728.317102</ele>
        <time>2022-04-05T07:31:06.262Z</time>
      </trkpt>
      <trkpt lat="42.59362" lon="23.0065">
        <ele>717.3511</ele>
        <time>2022-04-05T07:31:58.231Z</time>
      </trkpt>
      <trkpt lat="42.59267" lon="23.0048">
        <ele>721.535512</ele>
        <time>2022-04-05T07:33:03.206Z</time>
      </trkpt>
      <trkpt lat="42.5927" lon="23.00195">
        <ele>734.138873</ele>
        <time>2022-04-05T07:34:15.214Z</time>
      </trkpt>
      <trkpt lat="42.59319" lon="22.99932">
        <ele>735.673732</ele>
        <time>2022-04-05T07:35:17.224Z</time>
      </trkpt>
      <trkpt lat="42.59412" lon="22.99682">
        <ele>736.982753</ele>
        <time>2022-04-05T07:36:33.261Z</time>
      </trkpt>
      <trkpt lat="42.59561" lon="22.9949">
        <ele>749.34924</ele>
        <time>2022-04-05T07:38:07.219Z</time>
      </trkpt>
      <trkpt lat="42.59583" lon="22.99192">
        <ele>740.577977</ele>
        <time>2022-04-05T07:39:10.215Z</time>
      </trkpt>
      <trkpt lat="42.59522" lon="22.98879">
        <ele>732.886055</ele>
        <time>2022-04-05T07:39:37.222Z</time>
      </trkpt>
      <trkpt lat="42.59467" lon="22.9856">
        <ele>731.834656</ele>
        <time>2022-04-05T07:40:11.221Z</time>
      </trkpt>
      <trkpt lat="42.59414" lon="22.98275">
        <ele>739.247973</ele>
        <time>2022-04-05T07:41:24.210Z</time>
      </trkpt>
      <trkpt lat="42.59365" lon="22.98004">
        <ele>747.326276</ele>
        <time>2022-04-05T07:43:01.230Z</time>
      </trkpt>
      <trkpt lat="42.59277" lon="22.97763">
        <ele>757.660361</ele>
        <time>2022-04-05T07:44:44.225Z</time>
      </trkpt>
      <trkpt lat="42.59174" lon="22.97533">
        <ele>762.942277</ele>
        <time>2022-04-05T07:46:13.238Z</time>
      </trkpt>
      <trkpt lat="42.59064" lon="22.97291">
        <ele>765.625504</ele>
        <time>2022-04-05T07:47:32.245Z</time>
      </trkpt>
      <trkpt lat="42.58977" lon="22.97044">
        <ele>773.111791</ele>
        <time>2022-04-05T07:49:02.222Z</time>
      </trkpt>
      <trkpt lat="42.58908" lon="22.96795">
        <ele>783.457992</ele>
        <time>2022-04-05T07:50:48.205Z</time>
      </trkpt>
      <trkpt lat="42.58833" lon="22.96532">
        <ele>784.33948</ele>
        <time>2022-04-05T07:52:00.237Z</time>
      </trkpt>
      <trkpt lat="42.58686" lon="22.96268">
        <ele>784.043228</ele>
        <time>2022-04-05T07:53:02.206Z</time>
      </trkpt>
      <trkpt lat="42.58513" lon="22.96053">
        <ele>781.774896</ele>
        <time>2022-04-05T07:53:59.205Z</time>
      </trkpt>
      <trkpt lat="42.58333" lon="22.95924">
        <ele>784.607978</ele>
        <time>2022-04-05T07:54:59.206Z</time>
      </trkpt>
      <trkpt lat="42.58141" lon="22.95977">
        <ele>800.037686</ele>
        <time>2022-04-05T07:56:01.200Z</time>
      </trkpt>
      <trkpt lat="42.57946" lon="22.95975">
        <ele>792.07273</ele>
        <time>2022-04-05T07:57:06.228Z</time>
      </trkpt>
      <trkpt lat="42.57817" lon="22.95764">
        <ele>797.846376</ele>
        <time>2022-04-05T07:58:18.227Z</time>
      </trkpt>
      <trkpt lat="42.57645" lon="22.95601">
        <ele>793.543839</ele>
        <time>2022-04-05T07:59:12.233Z</time>
      </trkpt>
      <trkpt lat="42.57411" lon="22.95656">
        <ele>779.704665</ele>
        <time>2022-04-05T07:59:41.231Z</time>
      </trkpt>
      <trkpt lat="42.57166" lon="22.95787">
        <ele>771.924048</ele>
        <time>2022-04-05T08:00:15.228Z</time>
      </trkpt>
      <trkpt lat="42.56966" lon="22.95914">
        <ele>771.35007</ele>
        <time>2022-04-05T08:00:55.221Z</time>
      </trkpt>
      <trkpt lat="42.56793" lon="22.9604">
        <ele>771.646333</ele>
        <time>2022-04-05T08:01:35.223Z</time>
      </trkpt>
      <trkpt lat="42.56601" lon="22.96187">
        <ele>774.832301</ele>
        <time>2022-04-05T08:02:38.214Z</time>
      </trkpt>
      <trkpt lat="42.56417" lon="22.96306">
        <ele>778.061717</ele>
        <time>2022-04-05T08:03:38.230Z</time>
      </trkpt>
      <trkpt lat="42.56206" lon="22.96364">
        <ele>782.370744</ele>
        <time>2022-04-05T08:04:57.235Z</time>
      </trkpt>
      <trkpt lat="42.56006" lon="22.96414">
        <ele>783.663697</ele>
        <time>2022-04-05T08:06:02.221Z</time>
      </trkpt>
      <trkpt lat="42.5576" lon="22.96473">
        <ele>775.530906</ele>
        <time>2022-04-05T08:06:42.220Z</time>
      </trkpt>
      <trkpt lat="42.55422" lon="22.96528">
        <ele>763.997756</ele>
        <time>2022-04-05T08:07:22.220Z</time>
      </trkpt>
      <trkpt lat="42.5513" lon="22.96567">
        <ele>760.617043</ele>
        <time>2022-04-05T08:08:01.221Z</time>
      </trkpt>
      <trkpt lat="42.54873" lon="22.96401">
        <ele>745.015819</ele>
        <time>2022-04-05T08:08:41.222Z</time>
      </trkpt>
      <trkpt lat="42.54638" lon="22.96313">
        <ele>735.820539</ele>
        <time>2022-04-05T08:09:10.225Z</time>
      </trkpt>
      <trkpt lat="42.54447" lon="22.96173">
        <ele>728.203132</ele>
        <time>2022-04-05T08:11:02.217Z</time>
      </trkpt>
      <trkpt lat="42.54422" lon="22.96443">
        <ele>719.089952</ele>
        <time>2022-04-05T08:11:57.224Z</time>
      </trkpt>
      <trkpt lat="42.54263" lon="22.96682">
        <ele>716.07616</ele>
        <time>2022-04-05T08:12:43.209Z</time>
      </trkpt>
      <trkpt lat="42.54074" lon="22.96767">
        <ele>729.973655</ele>
        <time>2022-04-05T08:14:44.227Z</time>
      </trkpt>
      <trkpt lat="42.53913" lon="22.96926">
        <ele>736.695631</ele>
        <time>2022-04-05T08:16:12.225Z</time>
      </trkpt>
      <trkpt lat="42.53771" lon="22.97124">
        <ele>729.535589</ele>
        <time>2022-04-05T08:17:08.214Z</time>
      </trkpt>
      <trkpt lat="42.53605" lon="22.97355">
        <ele>723.818301</ele>
        <time>2022-04-05T08:17:52.216Z</time>
      </trkpt>
      <trkpt lat="42.53462" lon="22.97548">
        <ele>728.747064</ele>
        <time>2022-04-05T08:19:01.217Z</time>
      </trkpt>
      <trkpt lat="42.53312" lon="22.97751">
        <ele>732.463384</ele>
        <time>2022-04-05T08:20:20.214Z</time>
      </trkpt>
      <trkpt lat="42.53161" lon="22.97953">
        <ele>734.905951</ele>
        <time>2022-04-05T08:21:18.227Z</time>
      </trkpt>
      <trkpt lat="42.53004" lon="22.98162">
        <ele>730.986116</ele>
        <time>2022-04-05T08:22:07.219Z</time>
      </trkpt>
      <trkpt lat="42.52835" lon="22.98392">
        <ele>730.550428</ele>
        <time>2022-04-05T08:23:03.228Z</time>
      </trkpt>
      <trkpt lat="42.52655" lon="22.98633">
        <ele>731.639471</ele>
        <time>2022-04-05T08:24:03.265Z</time>
      </trkpt>
      <trkpt lat="42.52485" lon="22.98895">
        <ele>732.391496</ele>
        <time>2022-04-05T08:25:03.223Z</time>
      </trkpt>
      <trkpt lat="42.52354" lon="22.99109">
        <ele>731.140797</ele>
        <time>2022-04-05T08:25:47.239Z</time>
      </trkpt>
      <trkpt lat="42.52213" lon="22.99341">
        <ele>729.647645</ele>
        <time>2022-04-05T08:26:27.237Z</time>
      </trkpt>
      <trkpt lat="42.52082" lon="22.99567">
        <ele>725.711152</ele>
        <time>2022-04-05T08:27:09.227Z</time>
      </trkpt>
      <trkpt lat="42.51928" lon="22.99821">
        <ele>722.773151</ele>
        <time>2022-04-05T08:27:49.225Z</time>
      </trkpt>
      <trkpt lat="42.51783" lon="23.00066">
        <ele>719.005381</ele>
        <time>2022-04-05T08:28:29.225Z</time>
      </trkpt>
      <trkpt lat="42.51632" lon="23.00312">
        <ele>715.541036</ele>
        <time>2022-04-05T08:29:09.229Z</time>
      </trkpt>
      <trkpt lat="42.51495" lon="23.00543">
        <ele>712.055299</ele>
        <time>2022-04-05T08:29:49.235Z</time>
      </trkpt>
      <trkpt lat="42.51341" lon="23.00801">
        <ele>708.808943</ele>
        <time>2022-04-05T08:30:29.223Z</time>
      </trkpt>
      <trkpt lat="42.51196" lon="23.0104">
        <ele>706.598205</ele>
        <time>2022-04-05T08:31:09.251Z</time>
      </trkpt>
      <trkpt lat="42.51062" lon="23.01265">
        <ele>707.057512</ele>
        <time>2022-04-05T08:31:49.218Z</time>
      </trkpt>
      <trkpt lat="42.50914" lon="23.01509">
        <ele>710.763324</ele>
        <time>2022-04-05T08:32:51.215Z</time>
      </trkpt>
      <trkpt lat="42.50772" lon="23.01744">
        <ele>713.517043</ele>
        <time>2022-04-05T08:33:51.209Z</time>
      </trkpt>
      <trkpt lat="42.50626" lon="23.01985">
        <ele>714.132482</ele>
        <time>2022-04-05T08:34:51.237Z</time>
      </trkpt>
      <trkpt lat="42.50497" lon="23.02203">
        <ele>712.130691</ele>
        <time>2022-04-05T08:35:37.257Z</time>
      </trkpt>
      <trkpt lat="42.50356" lon="23.02435">
        <ele>708.838171</ele>
        <time>2022-04-05T08:36:17.223Z</time>
      </trkpt>
      <trkpt lat="42.50214" lon="23.02671">
        <ele>707.194029</ele>
        <time>2022-04-05T08:36:57.238Z</time>
      </trkpt>
      <trkpt lat="42.50089" lon="23.02881">
        <ele>707.899468</ele>
        <time>2022-04-05T08:37:37.256Z</time>
      </trkpt>
      <trkpt lat="42.49957" lon="23.03099">
        <ele>711.297507</ele>
        <time>2022-04-05T08:38:30.212Z</time>
      </trkpt>
      <trkpt lat="42.49827" lon="23.03317">
        <ele>714.924076</ele>
        <time>2022-04-05T08:39:41.216Z</time>
      </trkpt>
      <trkpt lat="42.49686" lon="23.03518">
        <ele>712.908202</ele>
        <time>2022-04-05T08:40:36.265Z</time>
      </trkpt>
      <trkpt lat="42.49498" lon="23.03771">
        <ele>707.536545</ele>
        <time>2022-04-05T08:41:18.233Z</time>
      </trkpt>
      <trkpt lat="42.49348" lon="23.03984">
        <ele>705.37566</ele>
        <time>2022-04-05T08:41:58.228Z</time>
      </trkpt>
      <trkpt lat="42.49193" lon="23.04218">
        <ele>704.387261</ele>
        <time>2022-04-05T08:42:38.218Z</time>
      </trkpt>
      <trkpt lat="42.49036" lon="23.04456">
        <ele>708.317303</ele>
        <time>2022-04-05T08:43:34.228Z</time>
      </trkpt>
      <trkpt lat="42.48893" lon="23.04671">
        <ele>710.975972</ele>
        <time>2022-04-05T08:44:34.242Z</time>
      </trkpt>
      <trkpt lat="42.48754" lon="23.04884">
        <ele>710.409926</ele>
        <time>2022-04-05T08:45:26.267Z</time>
      </trkpt>
      <trkpt lat="42.48616" lon="23.05092">
        <ele>710.693656</ele>
        <time>2022-04-05T08:46:08.228Z</time>
      </trkpt>
      <trkpt lat="42.48467" lon="23.05316">
        <ele>713.377526</ele>
        <time>2022-04-05T08:47:08.227Z</time>
      </trkpt>
      <trkpt lat="42.48328" lon="23.05527">
        <ele>715.182548</ele>
        <time>2022-04-05T08:48:08.235Z</time>
      </trkpt>
      <trkpt lat="42.48183" lon="23.05751">
        <ele>713.906119</ele>
        <time>2022-04-05T08:49:04.220Z</time>
      </trkpt>
      <trkpt lat="42.48029" lon="23.05982">
        <ele>709.575021</ele>
        <time>2022-04-05T08:49:44.268Z</time>
      </trkpt>
      <trkpt lat="42.47873" lon="23.06218">
        <ele>706.715829</ele>
        <time>2022-04-05T08:50:26.242Z</time>
      </trkpt>
      <trkpt lat="42.47718" lon="23.06451">
        <ele>705.347689</ele>
        <time>2022-04-05T08:51:06.232Z</time>
      </trkpt>
      <trkpt lat="42.47563" lon="23.06668">
        <ele>703.910422</ele>
        <time>2022-04-05T08:51:48.221Z</time>
      </trkpt>
      <trkpt lat="42.47407" lon="23.06849">
        <ele>703.39158</ele>
        <time>2022-04-05T08:52:29.226Z</time>
      </trkpt>
      <trkpt lat="42.47216" lon="23.0707">
        <ele>699.653633</ele>
        <time>2022-04-05T08:53:11.233Z</time>
      </trkpt>
      <trkpt lat="42.47056" lon="23.07252">
        <ele>706.481138</ele>
        <time>2022-04-05T08:54:29.217Z</time>
      </trkpt>
      <trkpt lat="42.469" lon="23.0743">
        <ele>709.158048</ele>
        <time>2022-04-05T08:55:43.217Z</time>
      </trkpt>
      <trkpt lat="42.46781" lon="23.07646">
        <ele>708.548464</ele>
        <time>2022-04-05T08:56:45.218Z</time>
      </trkpt>
      <trkpt lat="42.46675" lon="23.07889">
        <ele>711.593707</ele>
        <time>2022-04-05T08:57:54.236Z</time>
      </trkpt>
      <trkpt lat="42.46575" lon="23.08113">
        <ele>711.978477</ele>
        <time>2022-04-05T08:58:54.228Z</time>
      </trkpt>
      <trkpt lat="42.46469" lon="23.08357">
        <ele>713.643565</ele>
        <time>2022-04-05T08:59:54.235Z</time>
      </trkpt>
      <trkpt lat="42.46354" lon="23.08618">
        <ele>715.696487</ele>
        <time>2022-04-05T09:00:57.231Z</time>
      </trkpt>
      <trkpt lat="42.46247" lon="23.08856">
        <ele>716.496017</ele>
        <time>2022-04-05T09:01:57.298Z</time>
      </trkpt>
      <trkpt lat="42.46138" lon="23.09106">
        <ele>721.006041</ele>
        <time>2022-04-05T09:03:11.244Z</time>
      </trkpt>
      <trkpt lat="42.46033" lon="23.09336">
        <ele>723.778592</ele>
        <time>2022-04-05T09:04:38.224Z</time>
      </trkpt>
      <trkpt lat="42.45921" lon="23.09595">
        <ele>726.339627</ele>
        <time>2022-04-05T09:05:58.240Z</time>
      </trkpt>
      <trkpt lat="42.45811" lon="23.09846">
        <ele>729.682478</ele>
        <time>2022-04-05T09:07:17.239Z</time>
      </trkpt>
      <trkpt lat="42.45705" lon="23.10094">
        <ele>731.63936</ele>
        <time>2022-04-05T09:08:37.243Z</time>
      </trkpt>
      <trkpt lat="42.45602" lon="23.10322">
        <ele>733.56086</ele>
        <time>2022-04-05T09:09:39.235Z</time>
      </trkpt>
      <trkpt lat="42.45502" lon="23.1055">
        <ele>735.533129</ele>
        <time>2022-04-05T09:10:40.226Z</time>
      </trkpt>
      <trkpt lat="42.4539" lon="23.10807">
        <ele>733.939454</ele>
        <time>2022-04-05T09:11:36.235Z</time>
      </trkpt>
      <trkpt lat="42.45273" lon="23.1106">
        <ele>737.480968</ele>
        <time>2022-04-05T09:12:47.231Z</time>
      </trkpt>
      <trkpt lat="42.45154" lon="23.11332">
        <ele>738.936036</ele>
        <time>2022-04-05T09:13:54.234Z</time>
      </trkpt>
      <trkpt lat="42.45018" lon="23.11643">
        <ele>737.709569</ele>
        <time>2022-04-05T09:14:44.222Z</time>
      </trkpt>
      <trkpt lat="42.44895" lon="23.11878">
        <ele>736.803315</ele>
        <time>2022-04-05T09:31:26.265Z</time>
      </trkpt>
      <trkpt lat="42.44691" lon="23.1197">
        <ele>733.164716</ele>
        <time>2022-04-05T09:32:18.227Z</time>
      </trkpt>
      <trkpt lat="42.44481" lon="23.12012">
        <ele>730.208345</ele>
        <time>2022-04-05T09:46:23.253Z</time>
      </trkpt>
      <trkpt lat="42.44219" lon="23.12044">
        <ele>719.525666</ele>
        <time>2022-04-05T09:47:03.242Z</time>
      </trkpt>
      <trkpt lat="42.43956" lon="23.12076">
        <ele>716.002076</ele>
        <time>2022-04-05T09:49:19.247Z</time>
      </trkpt>
      <trkpt lat="42.43741" lon="23.12097">
        <ele>719.527043</ele>
        <time>2022-04-05T09:51:02.229Z</time>
      </trkpt>
      <trkpt lat="42.43509" lon="23.1208">
        <ele>717.709636</ele>
        <time>2022-04-05T09:51:50.232Z</time>
      </trkpt>
      <trkpt lat="42.43295" lon="23.12058">
        <ele>714.686169</ele>
        <time>2022-04-05T09:52:30.237Z</time>
      </trkpt>
      <trkpt lat="42.43099" lon="23.12025">
        <ele>716.868298</ele>
        <time>2022-04-05T09:53:10.239Z</time>
      </trkpt>
      <trkpt lat="42.42888" lon="23.11997">
        <ele>713.831811</ele>
        <time>2022-04-05T09:53:52.257Z</time>
      </trkpt>
      <trkpt lat="42.42665" lon="23.11999">
        <ele>708.425126</ele>
        <time>2022-04-05T09:54:41.210Z</time>
      </trkpt>
      <trkpt lat="42.4248" lon="23.12075">
        <ele>703.683108</ele>
        <time>2022-04-05T09:55:21.250Z</time>
      </trkpt>
      <trkpt lat="42.42302" lon="23.12203">
        <ele>700.862249</ele>
        <time>2022-04-05T09:56:01.244Z</time>
      </trkpt>
      <trkpt lat="42.42121" lon="23.12337">
        <ele>701.909246</ele>
        <time>2022-04-05T09:56:41.240Z</time>
      </trkpt>
      <trkpt lat="42.41936" lon="23.1247">
        <ele>700.589004</ele>
        <time>2022-04-05T09:57:21.236Z</time>
      </trkpt>
      <trkpt lat="42.41728" lon="23.12597">
        <ele>701.559352</ele>
        <time>2022-04-05T09:58:16.233Z</time>
      </trkpt>
      <trkpt lat="42.41535" lon="23.12728">
        <ele>699.155753</ele>
        <time>2022-04-05T09:59:10.227Z</time>
      </trkpt>
      <trkpt lat="42.41364" lon="23.12876">
        <ele>701.36797</ele>
        <time>2022-04-05T09:59:52.217Z</time>
      </trkpt>
      <trkpt lat="42.41173" lon="23.13043">
        <ele>705.884262</ele>
        <time>2022-04-05T10:00:45.240Z</time>
      </trkpt>
      <trkpt lat="42.40941" lon="23.13096">
        <ele>708.501597</ele>
        <time>2022-04-05T10:01:40.270Z</time>
      </trkpt>
      <trkpt lat="42.40691" lon="23.1299">
        <ele>705.815909</ele>
        <time>2022-04-05T10:02:43.237Z</time>
      </trkpt>
      <trkpt lat="42.40457" lon="23.12884">
        <ele>703.38971</ele>
        <time>2022-04-05T10:03:43.231Z</time>
      </trkpt>
      <trkpt lat="42.40228" lon="23.12779">
        <ele>705.503273</ele>
        <time>2022-04-05T10:04:43.255Z</time>
      </trkpt>
      <trkpt lat="42.40005" lon="23.12692">
        <ele>707.542821</ele>
        <time>2022-04-05T10:05:41.244Z</time>
      </trkpt>
      <trkpt lat="42.39791" lon="23.12613">
        <ele>706.443125</ele>
        <time>2022-04-05T10:06:41.237Z</time>
      </trkpt>
      <trkpt lat="42.39604" lon="23.12511">
        <ele>706.886249</ele>
        <time>2022-04-05T10:07:41.240Z</time>
      </trkpt>
      <trkpt lat="42.39425" lon="23.12365">
        <ele>705.445526</ele>
        <time>2022-04-05T10:08:41.262Z</time>
      </trkpt>
      <trkpt lat="42.39247" lon="23.12224">
        <ele>708.912452</ele>
        <time>2022-04-05T10:09:41.237Z</time>
      </trkpt>
      <trkpt lat="42.39088" lon="23.12037">
        <ele>710.629758</ele>
        <time>2022-04-05T10:10:50.253Z</time>
      </trkpt>
      <trkpt lat="42.38926" lon="23.11859">
        <ele>714.146671</ele>
        <time>2022-04-05T10:12:10.267Z</time>
      </trkpt>
      <trkpt lat="42.38742" lon="23.11733">
        <ele>720.103362</ele>
        <time>2022-04-05T10:13:28.223Z</time>
      </trkpt>
      <trkpt lat="42.3855" lon="23.11604">
        <ele>723.232352</ele>
        <time>2022-04-05T10:14:45.249Z</time>
      </trkpt>
      <trkpt lat="42.38363" lon="23.11479">
        <ele>725.062063</ele>
        <time>2022-04-05T10:15:56.227Z</time>
      </trkpt>
      <trkpt lat="42.38173" lon="23.11353">
        <ele>728.94124</ele>
        <time>2022-04-05T10:17:21.240Z</time>
      </trkpt>
      <trkpt lat="42.37977" lon="23.11326">
        <ele>741.571947</ele>
        <time>2022-04-05T10:19:30.229Z</time>
      </trkpt>
      <trkpt lat="42.37787" lon="23.11376">
        <ele>749.372858</ele>
        <time>2022-04-05T10:21:34.252Z</time>
      </trkpt>
      <trkpt lat="42.37583" lon="23.11365">
        <ele>749.045904</ele>
        <time>2022-04-05T10:23:13.242Z</time>
      </trkpt>
      <trkpt lat="42.37364" lon="23.11252">
        <ele>749.883567</ele>
        <time>2022-04-05T10:24:15.243Z</time>
      </trkpt>
      <trkpt lat="42.37155" lon="23.11114">
        <ele>752.012718</ele>
        <time>2022-04-05T10:25:17.256Z</time>
      </trkpt>
      <trkpt lat="42.36979" lon="23.10997">
        <ele>759.987238</ele>
        <time>2022-04-05T10:26:56.249Z</time>
      </trkpt>
      <trkpt lat="42.36786" lon="23.10869">
        <ele>757.407041</ele>
        <time>2022-04-05T10:28:13.241Z</time>
      </trkpt>
      <trkpt lat="42.36581" lon="23.10706">
        <ele>753.874594</ele>
        <time>2022-04-05T10:28:55.237Z</time>
      </trkpt>
      <trkpt lat="42.36378" lon="23.10524">
        <ele>754.609413</ele>
        <time>2022-04-05T10:29:52.236Z</time>
      </trkpt>
      <trkpt lat="42.36235" lon="23.10333">
        <ele>754.162145</ele>
        <time>2022-04-05T10:30:34.251Z</time>
      </trkpt>
      <trkpt lat="42.36052" lon="23.1022">
        <ele>753.558295</ele>
        <time>2022-04-05T10:31:14.253Z</time>
      </trkpt>
      <trkpt lat="42.35829" lon="23.10117">
        <ele>751.269615</ele>
        <time>2022-04-05T10:32:09.228Z</time>
      </trkpt>
      <trkpt lat="42.35613" lon="23.10016">
        <ele>745.773434</ele>
        <time>2022-04-05T10:33:00.236Z</time>
      </trkpt>
      <trkpt lat="42.35369" lon="23.09864">
        <ele>736.141736</ele>
        <time>2022-04-05T10:33:33.236Z</time>
      </trkpt>
      <trkpt lat="42.35144" lon="23.09653">
        <ele>727.778296</ele>
        <time>2022-04-05T10:34:13.247Z</time>
      </trkpt>
      <trkpt lat="42.34955" lon="23.09526">
        <ele>726.057124</ele>
        <time>2022-04-05T10:34:59.255Z</time>
      </trkpt>
      <trkpt lat="42.34742" lon="23.09504">
        <ele>724.445851</ele>
        <time>2022-04-05T10:35:46.261Z</time>
      </trkpt>
      <trkpt lat="42.34539" lon="23.09481">
        <ele>721.752246</ele>
        <time>2022-04-05T10:36:30.232Z</time>
      </trkpt>
      <trkpt lat="42.34277" lon="23.09441">
        <ele>716.190035</ele>
        <time>2022-04-05T10:37:12.239Z</time>
      </trkpt>
      <trkpt lat="42.34002" lon="23.09494">
        <ele>705.367015</ele>
        <time>2022-04-05T10:37:52.225Z</time>
      </trkpt>
      <trkpt lat="42.33727" lon="23.09663">
        <ele>694.709573</ele>
        <time>2022-04-05T10:38:32.243Z</time>
      </trkpt>
      <trkpt lat="42.33464" lon="23.09758">
        <ele>683.139267</ele>
        <time>2022-04-05T10:39:04.267Z</time>
      </trkpt>
      <trkpt lat="42.3327" lon="23.09824">
        <ele>674.807908</ele>
        <time>2022-04-05T10:39:25.249Z</time>
      </trkpt>
      <trkpt lat="42.33097" lon="23.09944">
        <ele>665.106053</ele>
        <time>2022-04-05T10:39:45.232Z</time>
      </trkpt>
      <trkpt lat="42.32912" lon="23.10061">
        <ele>654.207009</ele>
        <time>2022-04-05T10:40:06.258Z</time>
      </trkpt>
      <trkpt lat="42.32695" lon="23.10076">
        <ele>642.660192</ele>
        <time>2022-04-05T10:40:29.251Z</time>
      </trkpt>
      <trkpt lat="42.32464" lon="23.10075">
        <ele>628.715013</ele>
        <time>2022-04-05T10:40:52.254Z</time>
      </trkpt>
      <trkpt lat="42.32265" lon="23.09963">
        <ele>615.662258</ele>
        <time>2022-04-05T10:41:12.225Z</time>
      </trkpt>
      <trkpt lat="42.32051" lon="23.09813">
        <ele>609.438976</ele>
        <time>2022-04-05T10:41:32.220Z</time>
      </trkpt>
      <trkpt lat="42.318" lon="23.09797">
        <ele>602.570684</ele>
        <time>2022-04-05T10:42:03.252Z</time>
      </trkpt>
      <trkpt lat="42.31592" lon="23.09909">
        <ele>604.100234</ele>
        <time>2022-04-05T10:42:48.245Z</time>
      </trkpt>
      <trkpt lat="42.31394" lon="23.10052">
        <ele>604.93193</ele>
        <time>2022-04-05T10:43:30.230Z</time>
      </trkpt>
      <trkpt lat="42.31223" lon="23.10235">
        <ele>601.030916</ele>
        <time>2022-04-05T10:44:10.237Z</time>
      </trkpt>
      <trkpt lat="42.31047" lon="23.10395">
        <ele>598.011561</ele>
        <time>2022-04-05T10:44:50.243Z</time>
      </trkpt>
      <trkpt lat="42.30852" lon="23.10544">
        <ele>593.175234</ele>
        <time>2022-04-05T10:45:30.259Z</time>
      </trkpt>
      <trkpt lat="42.30658" lon="23.10688">
        <ele>596.089525</ele>
        <time>2022-04-05T10:46:23.244Z</time>
      </trkpt>
      <trkpt lat="42.30464" lon="23.10839">
        <ele>591.727981</ele>
        <time>2022-04-05T10:47:08.244Z</time>
      </trkpt>
      <trkpt lat="42.30248" lon="23.11005">
        <ele>586.247223</ele>
        <time>2022-04-05T10:47:48.278Z</time>
      </trkpt>
      <trkpt lat="42.30067" lon="23.11141">
        <ele>585.578539</ele>
        <time>2022-04-05T10:48:30.236Z</time>
      </trkpt>
      <trkpt lat="42.29863" lon="23.11297">
        <ele>587.963915</ele>
        <time>2022-04-05T10:49:30.233Z</time>
      </trkpt>
      <trkpt lat="42.29669" lon="23.11449">
        <ele>586.459132</ele>
        <time>2022-04-05T10:50:33.259Z</time>
      </trkpt>
      <trkpt lat="42.29482" lon="23.11593">
        <ele>587.461663</ele>
        <time>2022-04-05T10:51:30.243Z</time>
      </trkpt>
      <trkpt lat="42.29313" lon="23.11722">
        <ele>587.723165</ele>
        <time>2022-04-05T10:52:10.243Z</time>
      </trkpt>
      <trkpt lat="42.29132" lon="23.1186">
        <ele>593.818342</ele>
        <time>2022-04-05T10:53:08.260Z</time>
      </trkpt>
      <trkpt lat="42.28951" lon="23.12004">
        <ele>592.832092</ele>
        <time>2022-04-05T10:54:09.244Z</time>
      </trkpt>
      <trkpt lat="42.28761" lon="23.1215">
        <ele>581.976611</ele>
        <time>2022-04-05T10:54:49.256Z</time>
      </trkpt>
      <trkpt lat="42.28571" lon="23.12258">
        <ele>577.845239</ele>
        <time>2022-04-05T10:55:29.233Z</time>
      </trkpt>
      <trkpt lat="42.28374" lon="23.12352">
        <ele>577.914174</ele>
        <time>2022-04-05T10:56:26.247Z</time>
      </trkpt>
      <trkpt lat="42.28245" lon="23.12617">
        <ele>572.41204</ele>
        <time>2022-04-05T10:56:51.243Z</time>
      </trkpt>
      <trkpt lat="42.28032" lon="23.12755">
        <ele>564.332058</ele>
        <time>2022-04-05T10:57:38.234Z</time>
      </trkpt>
      <trkpt lat="42.27766" lon="23.12869">
        <ele>558.4022</ele>
        <time>2022-04-05T10:58:20.240Z</time>
      </trkpt>
      <trkpt lat="42.27584" lon="23.13072">
        <ele>560.743551</ele>
        <time>2022-04-05T10:59:13.259Z</time>
      </trkpt>
      <trkpt lat="42.27373" lon="23.13066">
        <ele>564.679693</ele>
        <time>2022-04-05T11:00:07.267Z</time>
      </trkpt>
      <trkpt lat="42.27345" lon="23.13148">
        <ele>565.884466</ele>
        <time>2022-04-05T11:15:35.260Z</time>
      </trkpt>
      <trkpt lat="42.27294" lon="23.1341">
        <ele>572.384634</ele>
        <time>2022-04-05T11:16:41.228Z</time>
      </trkpt>
      <trkpt lat="42.27253" lon="23.13674">
        <ele>581.081985</ele>
        <time>2022-04-05T11:17:54.237Z</time>
      </trkpt>
      <trkpt lat="42.27156" lon="23.13911">
        <ele>588.550021</ele>
        <time>2022-04-05T11:19:11.270Z</time>
      </trkpt>
      <trkpt lat="42.27126" lon="23.14153">
        <ele>589.845378</ele>
        <time>2022-04-05T11:20:58.258Z</time>
      </trkpt>
      <trkpt lat="42.27075" lon="23.14416">
        <ele>593.574314</ele>
        <time>2022-04-05T11:22:31.248Z</time>
      </trkpt>
      <trkpt lat="42.27008" lon="23.14675">
        <ele>597.987997</ele>
        <time>2022-04-05T11:23:51.255Z</time>
      </trkpt>
      <trkpt lat="42.26895" lon="23.14902">
        <ele>604.334213</ele>
        <time>2022-04-05T11:25:18.238Z</time>
      </trkpt>
      <trkpt lat="42.26802" lon="23.15148">
        <ele>609.448788</ele>
        <time>2022-04-05T11:26:41.245Z</time>
      </trkpt>
      <trkpt lat="42.26716" lon="23.15403">
        <ele>622.405219</ele>
        <time>2022-04-05T11:28:12.253Z</time>
      </trkpt>
      <trkpt lat="42.26648" lon="23.15646">
        <ele>625.196309</ele>
        <time>2022-04-05T11:29:37.269Z</time>
      </trkpt>
      <trkpt lat="42.26566" lon="23.15883">
        <ele>631.83696</ele>
        <time>2022-04-05T11:31:03.351Z</time>
      </trkpt>
      <trkpt lat="42.26587" lon="23.16152">
        <ele>640.353417</ele>
        <time>2022-04-05T11:32:23.228Z</time>
      </trkpt>
      <trkpt lat="42.26604" lon="23.16428">
        <ele>648.496525</ele>
        <time>2022-04-05T11:33:52.220Z</time>
      </trkpt>
      <trkpt lat="42.26626" lon="23.16718">
        <ele>650.760128</ele>
        <time>2022-04-05T11:35:09.216Z</time>
      </trkpt>
      <trkpt lat="42.26662" lon="23.16988">
        <ele>653.665775</ele>
        <time>2022-04-05T11:36:47.240Z</time>
      </trkpt>
      <trkpt lat="42.26741" lon="23.17263">
        <ele>651.671364</ele>
        <time>2022-04-05T11:37:55.314Z</time>
      </trkpt>
      <trkpt lat="42.26826" lon="23.17531">
        <ele>647.224947</ele>
        <time>2022-04-05T11:38:58.222Z</time>
      </trkpt>
      <trkpt lat="42.269" lon="23.17781">
        <ele>654.207811</ele>
        <time>2022-04-05T11:40:00.244Z</time>
      </trkpt>
      <trkpt lat="42.26981" lon="23.18044">
        <ele>654.648765</ele>
        <time>2022-04-05T11:41:03.248Z</time>
      </trkpt>
      <trkpt lat="42.2706" lon="23.18313">
        <ele>656.500033</ele>
        <time>2022-04-05T11:42:13.280Z</time>
      </trkpt>
      <trkpt lat="42.27131" lon="23.1858">
        <ele>659.992154</ele>
        <time>2022-04-05T11:43:21.276Z</time>
      </trkpt>
      <trkpt lat="42.27158" lon="23.18846">
        <ele>669.487809</ele>
        <time>2022-04-05T11:44:59.259Z</time>
      </trkpt>
      <trkpt lat="42.27168" lon="23.19112">
        <ele>676.995136</ele>
        <time>2022-04-05T11:46:42.258Z</time>
      </trkpt>
      <trkpt lat="42.27161" lon="23.19377">
        <ele>678.03908</ele>
        <time>2022-04-05T11:48:47.242Z</time>
      </trkpt>
      <trkpt lat="42.27141" lon="23.19512">
        <ele>678.03908</ele>
        <time>2022-04-05T11:51:29.835Z</time>
      </trkpt>
    </trkseg>
  </trk>
</gpx>